createdAt,value
2022-10-08T00:01:55.835Z,1.90
2022-10-08T00:04:22.376Z,1.90
2022-10-08T00:06:48.959Z,1.95
2022-10-08T00:09:15.481Z,2.08
2022-10-08T00:11:43.131Z,1.63
2022-10-08T00:14:09.628Z,1.50
2022-10-08T00:16:40.924Z,1.50
2022-10-08T00:19:11.504Z,1.35
2022-10-08T00:21:40.342Z,1.50
2022-10-08T00:24:09.153Z,1.35
2022-10-08T00:26:42.638Z,1.30
2022-10-08T00:29:13.300Z,1.30
2022-10-08T00:31:41.947Z,1.30
2022-10-08T00:34:10.988Z,1.10
2022-10-08T00:36:38.726Z,0.95
2022-10-08T00:39:13.862Z,1.25
2022-10-08T00:41:42.086Z,1.00
2022-10-08T00:44:46.400Z,1.00
2022-10-08T00:47:38.212Z,0.90
2022-10-08T00:50:14.445Z,1.00
2022-10-08T00:52:45.907Z,1.00
2022-10-08T00:55:15.261Z,0.80
2022-10-08T00:57:43.659Z,1.00
2022-10-08T01:00:17.756Z,1.13
2022-10-08T01:02:44.730Z,0.90
2022-10-08T01:05:14.820Z,0.90
2022-10-08T01:08:06.421Z,0.95
2022-10-08T01:10:35.612Z,1.00
2022-10-08T01:13:11.268Z,1.42
2022-10-08T01:16:00.884Z,1.00
2022-10-08T01:18:52.617Z,0.80
2022-10-08T01:21:43.396Z,1.05
2022-10-08T01:24:18.824Z,0.75
2022-10-08T01:26:55.695Z,0.82
2022-10-08T01:29:32.625Z,0.90
2022-10-08T01:32:08.038Z,1.00
2022-10-08T01:34:46.818Z,1.00
2022-10-08T01:37:21.122Z,1.20
2022-10-08T01:39:51.091Z,0.90
2022-10-08T01:42:20.269Z,0.98
2022-10-08T01:44:52.237Z,0.90
2022-10-08T01:47:24.029Z,1.00
2022-10-08T01:49:56.797Z,1.48
2022-10-08T01:52:31.589Z,1.00
2022-10-08T01:55:02.328Z,1.00
2022-10-08T01:57:30.928Z,1.13
2022-10-08T02:00:03.104Z,1.25
2022-10-08T02:02:29.657Z,1.30
2022-10-08T02:04:56.889Z,1.27
2022-10-08T02:07:30.195Z,1.48
2022-10-08T02:10:15.992Z,1.50
2022-10-08T02:12:44.171Z,1.60
2022-10-08T02:15:23.866Z,1.60
2022-10-08T02:18:08.040Z,2.00
2022-10-08T02:20:41.128Z,2.25
2022-10-08T02:23:38.745Z,2.50
2022-10-08T02:26:10.076Z,2.63
2022-10-08T02:28:50.596Z,3.15
2022-10-08T02:33:50.382Z,3.17
2022-10-08T02:36:21.689Z,3.22
2022-10-08T02:38:58.847Z,3.35
2022-10-08T02:41:30.898Z,3.63
2022-10-08T02:44:00.456Z,3.70
2022-10-08T02:46:31.519Z,3.70
2022-10-08T02:49:05.330Z,3.67
2022-10-08T02:51:35.006Z,4.13
2022-10-08T02:54:05.070Z,3.63
2022-10-08T02:56:56.969Z,3.60
2022-10-08T02:59:25.149Z,3.60
2022-10-08T03:01:59.708Z,3.65
2022-10-08T03:04:38.485Z,3.92
2022-10-08T03:07:06.027Z,3.78
2022-10-08T03:09:36.543Z,3.58
2022-10-08T03:12:03.712Z,3.45
2022-10-08T03:14:35.507Z,3.50
2022-10-08T03:17:02.096Z,3.55
2022-10-08T03:19:28.762Z,3.22
2022-10-08T03:21:56.631Z,3.03
2022-10-08T03:24:23.097Z,3.00
2022-10-08T03:26:49.577Z,2.60
2022-10-08T03:29:16.015Z,3.25
2022-10-08T03:31:42.434Z,2.65
2022-10-08T03:34:09.025Z,2.80
2022-10-08T03:36:35.673Z,2.60
2022-10-08T03:39:02.297Z,2.67
2022-10-08T03:41:31.307Z,2.58
2022-10-08T03:43:59.152Z,2.72
2022-10-08T03:46:25.809Z,2.65
2022-10-08T03:48:52.500Z,2.65
2022-10-08T03:51:20.677Z,2.30
2022-10-08T03:53:47.194Z,2.88
2022-10-08T03:56:24.800Z,2.58
2022-10-08T03:58:59.606Z,2.90
2022-10-08T04:01:28.449Z,2.53
2022-10-08T04:03:55.057Z,3.33
2022-10-08T04:06:22.147Z,2.65
2022-10-08T04:08:48.596Z,2.63
2022-10-08T04:11:19.363Z,2.45
2022-10-08T04:13:45.980Z,3.15
2022-10-08T04:16:15.471Z,3.10
2022-10-08T04:18:42.762Z,3.05
2022-10-08T04:21:12.515Z,3.10
2022-10-08T04:23:40.610Z,2.75
2022-10-08T04:26:08.751Z,2.95
2022-10-08T04:28:38.797Z,2.95
2022-10-08T04:31:14.079Z,2.78
2022-10-08T04:33:40.837Z,3.17
2022-10-08T04:36:09.370Z,3.45
2022-10-08T04:38:35.927Z,3.15
2022-10-08T04:41:06.540Z,3.35
2022-10-08T04:43:34.077Z,3.42
2022-10-08T04:46:00.606Z,3.50
2022-10-08T04:48:27.303Z,3.33
2022-10-08T04:50:58.073Z,3.55
2022-10-08T04:53:28.190Z,3.65
2022-10-08T04:55:56.234Z,3.45
2022-10-08T04:58:25.110Z,4.10
2022-10-08T05:00:51.798Z,4.22
2022-10-08T05:03:18.290Z,4.05
2022-10-08T05:05:46.204Z,3.53
2022-10-08T05:08:12.776Z,3.53
2022-10-08T05:10:39.231Z,3.47
2022-10-08T05:13:05.761Z,3.80
2022-10-08T05:15:35.138Z,3.58
2022-10-08T05:18:01.676Z,3.38
2022-10-08T05:20:28.236Z,3.85
2022-10-08T05:22:54.793Z,3.40
2022-10-08T05:25:21.272Z,3.60
2022-10-08T05:27:47.713Z,3.08
2022-10-08T05:30:16.524Z,3.40
2022-10-08T05:32:45.507Z,3.50
2022-10-08T05:35:12.126Z,3.92
2022-10-08T05:37:38.640Z,3.50
2022-10-08T05:40:05.706Z,3.58
2022-10-08T05:42:32.171Z,3.45
2022-10-08T05:44:58.606Z,3.47
2022-10-08T05:47:25.101Z,3.92
2022-10-08T05:49:51.578Z,3.35
2022-10-08T05:52:18.588Z,3.10
2022-10-08T05:54:45.120Z,3.30
2022-10-08T05:57:11.600Z,3.30
2022-10-08T05:59:38.086Z,3.63
2022-10-08T06:02:04.676Z,3.50
2022-10-08T06:04:31.268Z,3.25
2022-10-08T06:06:57.848Z,3.30
2022-10-08T06:09:24.417Z,3.17
2022-10-08T06:11:50.941Z,2.95
2022-10-08T06:14:20.235Z,3.10
2022-10-08T06:16:47.044Z,2.90
2022-10-08T06:19:14.205Z,3.08
2022-10-08T06:21:40.912Z,3.13
2022-10-08T06:24:10.308Z,2.80
2022-10-08T06:26:39.453Z,2.92
2022-10-08T06:29:08.290Z,3.00
2022-10-08T06:31:35.666Z,2.83
2022-10-08T06:34:04.448Z,3.25
2022-10-08T06:36:32.137Z,2.60
2022-10-08T06:39:02.349Z,2.20
2022-10-08T06:41:34.867Z,2.38
2022-10-08T06:44:02.988Z,2.40
2022-10-08T06:46:31.346Z,2.40
2022-10-08T06:48:58.834Z,2.60
2022-10-08T06:51:25.293Z,2.45
2022-10-08T06:53:54.906Z,2.65
2022-10-08T06:56:21.810Z,2.22
2022-10-08T06:58:48.435Z,2.20
2022-10-08T07:01:22.710Z,2.03
2022-10-08T07:03:54.476Z,2.00
2022-10-08T07:06:21.445Z,2.03
2022-10-08T07:08:52.164Z,1.60
2022-10-08T07:11:19.394Z,1.85
2022-10-08T07:13:45.831Z,1.60
2022-10-08T07:16:21.761Z,1.65
2022-10-08T07:18:52.060Z,1.85
2022-10-08T07:21:20.386Z,1.80
2022-10-08T07:26:15.225Z,1.48
2022-10-08T07:28:44.883Z,1.55
2022-10-08T07:31:19.447Z,1.50
2022-10-08T07:33:46.035Z,1.50
2022-10-08T07:36:14.992Z,1.50
2022-10-08T07:38:42.338Z,1.60
2022-10-08T07:41:10.428Z,1.45
2022-10-08T07:43:37.705Z,1.45
2022-10-08T07:46:06.315Z,1.65
2022-10-08T07:48:34.271Z,1.23
2022-10-08T07:51:12.651Z,1.10
2022-10-08T07:53:40.737Z,1.17
2022-10-08T07:56:09.172Z,1.20
2022-10-08T07:58:36.080Z,1.25
2022-10-08T08:01:05.360Z,1.20
2022-10-08T08:03:32.567Z,1.17
2022-10-08T08:06:07.689Z,1.00
2022-10-08T08:08:36.003Z,1.38
2022-10-08T08:13:35.922Z,1.02
2022-10-08T08:16:06.886Z,1.30
2022-10-08T08:18:35.761Z,1.33
2022-10-08T08:21:08.428Z,0.90
2022-10-08T08:23:37.738Z,1.00
2022-10-08T08:26:13.762Z,1.05
2022-10-08T08:28:40.338Z,0.98
2022-10-08T08:31:12.378Z,1.02
2022-10-08T08:33:39.295Z,1.02
2022-10-08T08:36:06.429Z,1.10
2022-10-08T08:38:37.118Z,0.95
2022-10-08T08:41:39.035Z,1.08
2022-10-08T08:44:19.083Z,1.20
2022-10-08T08:46:53.403Z,1.05
2022-10-08T08:51:59.541Z,0.90
2022-10-08T08:54:26.401Z,1.52
2022-10-08T08:56:53.762Z,1.20
2022-10-08T08:59:32.032Z,1.02
2022-10-08T09:02:03.736Z,1.20
2022-10-08T09:04:51.383Z,1.10
2022-10-08T09:07:23.958Z,0.90
2022-10-08T09:09:58.725Z,1.10
2022-10-08T09:15:40.678Z,1.05
2022-10-08T09:18:07.279Z,1.20
2022-10-08T09:20:40.023Z,1.23
2022-10-08T09:23:20.442Z,1.00
2022-10-08T09:26:03.283Z,1.15
2022-10-08T09:28:50.805Z,1.30
2022-10-08T09:31:23.113Z,1.40
2022-10-08T09:34:01.419Z,1.05
2022-10-08T09:36:39.842Z,1.42
2022-10-08T09:39:16.217Z,1.42
2022-10-08T09:41:44.774Z,1.10
2022-10-08T09:44:40.221Z,1.10
2022-10-08T09:47:13.761Z,1.10
2022-10-08T09:49:40.821Z,1.30
2022-10-08T09:52:16.873Z,1.00
2022-10-08T09:54:51.151Z,1.23
2022-10-08T09:57:20.471Z,1.10
2022-10-08T09:59:57.949Z,1.00
2022-10-08T10:02:30.973Z,1.42
2022-10-08T10:04:58.965Z,1.10
2022-10-08T10:07:36.781Z,1.08
2022-10-08T10:10:09.459Z,1.10
2022-10-08T10:12:39.587Z,1.20
2022-10-08T10:15:12.750Z,1.13
2022-10-08T10:18:11.639Z,1.00
2022-10-08T10:20:53.684Z,1.02
2022-10-08T10:23:26.224Z,1.00
2022-10-08T10:25:57.598Z,1.30
2022-10-08T10:28:41.419Z,1.00
2022-10-08T10:31:18.137Z,1.00
2022-10-08T10:33:54.754Z,0.90
2022-10-08T10:36:23.520Z,1.10
2022-10-08T10:39:12.551Z,0.80
2022-10-08T10:41:50.803Z,1.08
2022-10-08T10:44:23.515Z,0.90
2022-10-08T10:46:53.736Z,0.80
2022-10-08T10:49:26.943Z,1.00
2022-10-08T10:52:34.460Z,1.02
2022-10-08T10:55:18.607Z,0.90
2022-10-08T10:58:11.983Z,0.70
2022-10-08T11:01:06.632Z,0.80
2022-10-08T11:03:45.965Z,0.93
2022-10-08T11:06:44.964Z,0.90
2022-10-08T11:09:42.114Z,0.80
2022-10-08T11:12:37.358Z,0.90
2022-10-08T11:15:03.737Z,0.85
2022-10-08T11:17:38.377Z,0.80
2022-10-08T11:20:55.569Z,0.93
2022-10-08T11:24:00.554Z,0.70
2022-10-08T11:26:48.562Z,0.85
2022-10-08T11:29:34.823Z,1.17
2022-10-08T11:32:02.226Z,0.90
2022-10-08T11:34:37.316Z,0.80
2022-10-08T11:37:13.503Z,0.98
2022-10-08T11:39:58.388Z,1.05
2022-10-08T11:42:31.337Z,1.00
2022-10-08T11:45:22.675Z,0.98
2022-10-08T11:47:53.090Z,0.90
2022-10-08T11:50:32.465Z,1.05
2022-10-08T11:53:14.302Z,1.00
2022-10-08T11:56:01.958Z,1.00
2022-10-08T11:58:31.576Z,0.77
2022-10-08T12:01:05.761Z,0.73
2022-10-08T12:06:25.240Z,0.90
2022-10-08T12:08:59.691Z,1.02
2022-10-08T12:11:32.143Z,1.10
2022-10-08T12:14:10.737Z,1.20
2022-10-08T12:16:55.806Z,0.90
2022-10-08T12:19:34.937Z,1.23
2022-10-08T12:22:02.913Z,1.05
2022-10-08T12:24:38.488Z,0.80
2022-10-08T12:27:17.289Z,1.20
2022-10-08T12:30:08.115Z,0.90
2022-10-08T12:32:43.646Z,0.80
2022-10-08T12:35:34.427Z,1.00
2022-10-08T12:38:16.132Z,0.95
2022-10-08T12:40:57.241Z,1.00
2022-10-08T12:43:30.123Z,1.02
2022-10-08T12:46:17.695Z,1.40
2022-10-08T12:48:53.756Z,1.10
2022-10-08T12:51:26.689Z,1.13
2022-10-08T12:53:54.006Z,0.82
2022-10-08T12:56:30.146Z,0.93
2022-10-08T12:58:59.571Z,0.90
2022-10-08T13:01:26.718Z,0.90
2022-10-08T13:04:18.856Z,1.05
2022-10-08T13:06:46.351Z,0.88
2022-10-08T13:09:27.816Z,0.80
2022-10-08T13:12:00.673Z,0.80
2022-10-08T13:14:35.774Z,0.85
2022-10-08T13:17:02.538Z,0.90
2022-10-08T13:19:37.749Z,1.35
2022-10-08T13:22:24.797Z,1.10
2022-10-08T13:24:51.623Z,1.35
2022-10-08T13:27:36.385Z,0.82
2022-10-08T13:30:28.051Z,0.73
2022-10-08T13:33:03.359Z,1.20
2022-10-08T13:35:29.921Z,0.90
2022-10-08T13:37:56.609Z,0.90
2022-10-08T13:40:24.251Z,0.90
2022-10-08T13:42:56.399Z,0.77
2022-10-08T13:45:25.319Z,0.82
2022-10-08T13:47:52.603Z,1.00
2022-10-08T13:50:20.154Z,0.85
2022-10-08T13:52:54.625Z,1.13
2022-10-08T13:55:23.337Z,0.90
2022-10-08T13:57:50.250Z,0.93
2022-10-08T14:00:17.529Z,0.90
2022-10-08T14:02:44.094Z,0.80
2022-10-08T14:05:10.531Z,0.88
2022-10-08T14:07:37.828Z,0.95
2022-10-08T14:10:05.553Z,0.90
2022-10-08T14:12:34.061Z,0.98
2022-10-08T14:15:01.220Z,1.00
2022-10-08T14:17:27.703Z,0.80
2022-10-08T14:19:57.017Z,0.90
2022-10-08T14:22:23.670Z,0.95
2022-10-08T14:24:50.653Z,0.70
2022-10-08T14:27:17.286Z,0.82
2022-10-08T14:29:43.790Z,0.90
2022-10-08T14:32:11.921Z,0.90
2022-10-08T14:34:39.057Z,0.70
2022-10-08T14:37:05.951Z,1.00
2022-10-08T14:39:32.426Z,0.82
2022-10-08T14:41:58.895Z,0.90
2022-10-08T14:44:25.512Z,0.90
2022-10-08T14:46:52.871Z,0.90
2022-10-08T14:49:20.493Z,0.90
2022-10-08T14:51:47.308Z,1.00
2022-10-08T14:54:13.808Z,0.80
2022-10-08T14:56:42.642Z,0.80
2022-10-08T14:59:10.053Z,0.90
2022-10-08T15:01:36.730Z,1.00
2022-10-08T15:04:06.786Z,1.25
2022-10-08T15:06:34.188Z,0.90
2022-10-08T15:09:00.632Z,1.00
2022-10-08T15:11:27.089Z,1.00
2022-10-08T15:13:53.963Z,1.10
2022-10-08T15:16:20.558Z,0.70
2022-10-08T15:18:48.031Z,1.08
2022-10-08T15:21:14.663Z,0.90
2022-10-08T15:23:41.128Z,1.10
2022-10-08T15:26:10.764Z,0.82
2022-10-08T15:28:38.298Z,1.00
2022-10-08T15:31:08.801Z,1.00
2022-10-08T15:33:43.470Z,0.90
2022-10-08T15:36:18.802Z,1.00
2022-10-08T15:38:46.847Z,0.95
2022-10-08T15:41:17.555Z,1.15
2022-10-08T15:43:44.362Z,1.10
2022-10-08T15:46:13.563Z,1.10
2022-10-08T15:48:40.087Z,1.00
2022-10-08T15:51:07.500Z,1.30
2022-10-08T15:53:38.500Z,1.20
2022-10-08T15:56:05.940Z,1.10
2022-10-08T15:58:49.956Z,1.00
2022-10-08T16:01:20.388Z,1.10
2022-10-08T16:03:48.251Z,1.10
2022-10-08T16:06:17.793Z,1.02
2022-10-08T16:08:47.547Z,1.20
2022-10-08T16:11:26.000Z,1.50
2022-10-08T16:13:59.684Z,1.40
2022-10-08T16:16:26.848Z,1.30
2022-10-08T16:18:58.933Z,1.20
2022-10-08T16:21:26.373Z,1.35
2022-10-08T16:23:53.015Z,1.20
2022-10-08T16:26:21.103Z,1.20
2022-10-08T16:28:49.708Z,1.25
2022-10-08T16:31:17.178Z,1.50
2022-10-08T16:33:45.121Z,1.15
2022-10-08T16:36:12.783Z,1.40
2022-10-08T16:38:40.263Z,1.38
2022-10-08T16:41:28.078Z,1.40
2022-10-08T16:43:56.407Z,1.35
2022-10-08T16:46:25.465Z,1.55
2022-10-08T16:48:53.000Z,1.40
2022-10-08T16:51:20.838Z,1.25
2022-10-08T16:53:56.203Z,1.48
2022-10-08T16:56:25.127Z,1.27
2022-10-08T16:59:00.529Z,1.45
2022-10-08T17:01:27.615Z,1.88
2022-10-08T17:03:54.466Z,1.85
2022-10-08T17:06:22.204Z,1.40
2022-10-08T17:08:48.905Z,1.58
2022-10-08T17:11:16.164Z,1.50
2022-10-08T17:13:44.648Z,1.65
2022-10-08T17:16:12.794Z,1.88
2022-10-08T17:18:40.123Z,1.45
2022-10-08T17:21:07.202Z,1.90
2022-10-08T17:23:38.170Z,1.83
2022-10-08T17:26:10.037Z,1.70
2022-10-08T17:28:39.184Z,1.60
2022-10-08T17:31:07.689Z,2.13
2022-10-08T17:33:36.189Z,2.60
2022-10-08T17:36:07.392Z,2.40
2022-10-08T17:38:35.825Z,3.00
2022-10-08T17:41:26.769Z,2.88
2022-10-08T17:43:57.925Z,3.17
2022-10-08T17:46:30.479Z,3.20
2022-10-08T17:48:57.458Z,3.08
2022-10-08T17:51:26.962Z,3.20
2022-10-08T17:53:54.838Z,3.00
2022-10-08T17:56:22.230Z,2.92
2022-10-08T17:58:48.840Z,2.78
2022-10-08T18:01:18.849Z,2.55
2022-10-08T18:03:54.277Z,2.55
2022-10-08T18:06:21.511Z,2.85
2022-10-08T18:08:48.377Z,2.50
2022-10-08T18:11:16.513Z,2.50
2022-10-08T18:13:43.123Z,3.13
2022-10-08T18:16:13.455Z,2.70
2022-10-08T18:18:41.531Z,2.72
2022-10-08T18:21:09.890Z,2.70
2022-10-08T18:23:36.617Z,3.75
2022-10-08T18:26:11.042Z,4.38
2022-10-08T18:31:05.890Z,4.20
2022-10-08T18:33:33.943Z,4.82
2022-10-08T18:36:18.938Z,5.25
2022-10-08T18:38:46.891Z,5.20
2022-10-08T18:41:18.029Z,6.07
2022-10-08T18:43:45.649Z,6.65
2022-10-08T18:46:13.900Z,6.63
2022-10-08T18:51:10.081Z,6.20
2022-10-08T18:53:38.986Z,5.88
2022-10-08T18:56:08.703Z,6.13
2022-10-08T18:58:35.437Z,5.93
2022-10-08T19:01:02.301Z,6.43
2022-10-08T19:03:28.699Z,7.72
2022-10-08T19:05:55.252Z,8.40
2022-10-08T19:08:22.071Z,7.30
2022-10-08T19:10:48.812Z,7.90
2022-10-08T19:13:15.510Z,7.25
2022-10-08T19:15:41.997Z,7.45
2022-10-08T19:18:08.792Z,7.00
2022-10-08T19:20:35.869Z,6.95
2022-10-08T19:23:02.984Z,6.90
2022-10-08T19:25:33.718Z,6.88
2022-10-08T19:28:00.183Z,6.60
2022-10-08T19:30:31.947Z,6.55
2022-10-08T19:32:59.286Z,6.43
2022-10-08T19:35:25.841Z,6.60
2022-10-08T19:37:52.332Z,6.68
2022-10-08T19:40:18.765Z,6.35
2022-10-08T19:42:45.656Z,6.80
2022-10-08T19:45:13.289Z,6.30
2022-10-08T19:47:39.846Z,6.05
2022-10-08T19:50:06.663Z,6.57
2022-10-08T19:52:33.143Z,6.95
2022-10-08T19:54:59.633Z,6.90
2022-10-08T19:57:26.078Z,7.15
2022-10-08T19:59:52.525Z,6.95
2022-10-08T20:02:19.132Z,7.43
2022-10-08T20:04:46.778Z,7.65
2022-10-08T20:07:13.358Z,7.43
2022-10-08T20:09:39.895Z,7.18
2022-10-08T20:12:06.381Z,6.95
2022-10-08T20:14:32.849Z,7.70
2022-10-08T20:16:59.265Z,7.10
2022-10-08T20:19:25.697Z,7.32
2022-10-08T20:21:55.653Z,7.20
2022-10-08T20:24:22.531Z,7.43
2022-10-08T20:26:49.554Z,7.35
2022-10-08T20:29:21.484Z,7.82
2022-10-08T20:31:51.215Z,7.88
2022-10-08T20:34:20.348Z,7.50
2022-10-08T20:36:47.836Z,7.45
2022-10-08T20:39:16.390Z,8.63
2022-10-08T20:41:43.500Z,8.02
2022-10-08T20:44:10.328Z,7.88
2022-10-08T20:46:38.319Z,7.72
2022-10-08T20:49:06.027Z,7.68
2022-10-08T20:51:33.492Z,7.10
2022-10-08T20:54:02.672Z,6.72
2022-10-08T20:56:30.475Z,6.38
2022-10-08T20:58:57.903Z,6.30
2022-10-08T21:01:37.597Z,6.00
2022-10-08T21:04:05.418Z,6.03
2022-10-08T21:06:40.063Z,6.05
2022-10-08T21:09:07.521Z,5.88
2022-10-08T21:11:34.936Z,5.68
2022-10-08T21:14:03.621Z,6.03
2022-10-08T21:16:32.840Z,5.50
2022-10-08T21:19:01.830Z,5.50
2022-10-08T21:21:30.673Z,5.30
2022-10-08T21:23:58.642Z,5.40
2022-10-08T21:26:27.591Z,4.32
2022-10-08T21:28:59.926Z,4.35
2022-10-08T21:31:28.280Z,4.03
2022-10-08T21:36:28.350Z,3.95
2022-10-08T21:38:55.269Z,4.20
2022-10-08T21:41:23.835Z,3.63
2022-10-08T21:43:52.499Z,4.07
2022-10-08T21:46:24.528Z,3.63
2022-10-08T21:49:03.748Z,3.60
2022-10-08T21:51:31.784Z,3.58
2022-10-08T21:54:00.837Z,3.78
2022-10-08T21:56:30.112Z,3.80
2022-10-08T21:58:59.206Z,3.85
2022-10-08T22:01:25.637Z,4.22
2022-10-08T22:03:56.894Z,4.28
2022-10-08T22:06:24.319Z,3.67
2022-10-08T22:08:52.431Z,3.75
2022-10-08T22:11:19.894Z,4.15
2022-10-08T22:13:46.724Z,4.30
2022-10-08T22:16:15.998Z,4.20
2022-10-08T22:18:43.049Z,4.70
2022-10-08T22:21:16.001Z,4.72
2022-10-08T22:23:42.691Z,4.57
2022-10-08T22:26:12.432Z,3.92
2022-10-08T22:28:39.508Z,4.22
2022-10-08T22:31:08.423Z,4.07
2022-10-08T22:33:35.707Z,4.15
2022-10-08T22:36:05.463Z,4.07
2022-10-08T22:38:34.332Z,3.80
2022-10-08T22:41:08.737Z,4.28
2022-10-08T22:43:36.473Z,3.70
2022-10-08T22:46:04.615Z,3.58
2022-10-08T22:48:31.828Z,3.60
2022-10-08T22:51:19.987Z,3.85
2022-10-08T22:53:47.651Z,3.60
2022-10-08T22:56:19.673Z,3.88
2022-10-08T22:58:47.084Z,3.70
2022-10-08T23:01:15.883Z,3.72
2022-10-08T23:03:42.441Z,3.85
2022-10-08T23:06:21.238Z,3.80
2022-10-08T23:08:55.004Z,3.60
2022-10-08T23:11:21.658Z,3.95
2022-10-08T23:13:56.155Z,4.05
2022-10-08T23:16:24.397Z,3.78
2022-10-08T23:18:56.838Z,3.88
2022-10-08T23:21:24.045Z,3.88
2022-10-08T23:23:51.038Z,3.67
2022-10-08T23:26:18.239Z,3.25
2022-10-08T23:28:49.466Z,3.80
2022-10-08T23:31:27.861Z,3.60
2022-10-08T23:33:55.342Z,3.72
2022-10-08T23:36:24.999Z,3.72
2022-10-08T23:38:52.093Z,3.95
2022-10-08T23:41:19.202Z,3.85
2022-10-08T23:43:48.258Z,3.83
2022-10-08T23:46:17.351Z,3.85
2022-10-08T23:48:44.131Z,3.97
2022-10-08T23:51:12.358Z,4.00
2022-10-08T23:53:39.939Z,3.85
2022-10-08T23:56:07.042Z,3.83
2022-10-08T23:58:34.052Z,3.65
